createdAt,value
2022-09-17T00:03:16.185Z,96731.00
2022-09-17T00:08:17.076Z,96723.00
2022-09-17T00:13:17.875Z,96720.00
2022-09-17T00:18:18.616Z,96732.00
2022-09-17T00:23:19.508Z,96731.00
2022-09-17T00:28:20.218Z,96733.00
2022-09-17T00:33:21.037Z,96732.00
2022-09-17T00:38:21.761Z,96740.00
2022-09-17T00:45:14.793Z,96735.00
2022-09-17T00:57:04.862Z,96745.00
2022-09-17T01:02:06.280Z,96733.00
2022-09-17T01:07:18.006Z,96732.00
2022-09-17T01:12:50.636Z,96737.00
2022-09-17T01:18:17.594Z,96728.00
2022-09-17T01:23:56.083Z,96727.00
2022-09-17T01:30:13.881Z,96734.00
2022-09-17T01:39:06.774Z,96734.00
2022-09-17T01:44:16.397Z,96738.00
2022-09-17T01:49:20.848Z,96746.00
2022-09-17T01:54:30.300Z,96738.00
2022-09-17T01:59:46.963Z,96742.00
2022-09-17T02:05:05.840Z,96743.00
2022-09-17T02:10:13.583Z,96737.00
2022-09-17T02:15:24.920Z,96740.00
2022-09-17T02:20:35.507Z,96738.00
2022-09-17T02:25:41.363Z,96745.00
2022-09-17T02:30:42.848Z,96745.00
2022-09-17T02:35:45.839Z,96742.00
2022-09-17T02:40:58.696Z,96748.00
2022-09-17T02:46:19.595Z,96744.00
2022-09-17T02:52:22.214Z,96745.00
2022-09-17T03:00:57.398Z,96745.00
2022-09-17T03:05:59.743Z,96748.00
2022-09-17T03:11:01.803Z,96750.00
2022-09-17T03:16:03.582Z,96750.00
2022-09-17T03:21:04.440Z,96748.00
2022-09-17T03:26:05.432Z,96749.00
2022-09-17T03:31:06.290Z,96750.00
2022-09-17T03:36:07.619Z,96753.00
2022-09-17T03:41:08.498Z,96754.00
2022-09-17T03:46:09.294Z,96750.00
2022-09-17T03:51:10.275Z,96759.00
2022-09-17T03:56:11.210Z,96759.00
2022-09-17T04:01:12.066Z,96765.00
2022-09-17T04:06:12.953Z,96766.00
2022-09-17T04:11:14.276Z,96774.00
2022-09-17T04:16:15.426Z,96785.00
2022-09-17T04:21:16.345Z,96772.00
2022-09-17T04:26:17.130Z,96787.00
2022-09-17T04:31:17.953Z,96787.00
2022-09-17T04:36:18.837Z,96791.00
2022-09-17T04:41:19.895Z,96795.00
2022-09-17T04:46:20.713Z,96795.00
2022-09-17T04:51:21.623Z,96794.00
2022-09-17T04:56:22.339Z,96795.00
2022-09-17T05:01:23.156Z,96801.00
2022-09-17T05:06:23.912Z,96802.00
2022-09-17T05:11:25.216Z,96815.00
2022-09-17T05:16:26.321Z,96804.00
2022-09-17T05:21:27.364Z,96808.00
2022-09-17T05:26:28.689Z,96815.00
2022-09-17T05:31:30.338Z,96819.00
2022-09-17T05:36:31.097Z,96820.00
2022-09-17T05:41:33.606Z,96823.00
2022-09-17T05:46:34.534Z,96834.00
2022-09-17T05:51:35.375Z,96833.00
2022-09-17T05:56:36.116Z,96827.00
2022-09-17T06:01:36.911Z,96843.00
2022-09-17T06:06:38.156Z,96854.00
2022-09-17T06:11:39.719Z,96848.00
2022-09-17T06:16:40.642Z,96851.00
2022-09-17T06:21:41.540Z,96842.00
2022-09-17T06:26:42.271Z,96860.00
2022-09-17T06:31:46.550Z,96861.00
2022-09-17T06:36:50.433Z,96851.00
2022-09-17T06:41:51.244Z,96855.00
2022-09-17T06:46:52.078Z,96853.00
2022-09-17T06:51:53.192Z,96871.00
2022-09-17T06:56:53.941Z,96871.00
2022-09-17T07:01:55.824Z,96886.00
2022-09-17T07:06:56.622Z,96892.00
2022-09-17T07:11:58.035Z,96881.00
2022-09-17T07:16:59.203Z,96885.00
2022-09-17T07:21:59.989Z,96878.00
2022-09-17T07:27:01.083Z,96891.00
2022-09-17T07:32:02.314Z,96885.00
2022-09-17T07:37:03.091Z,96884.00
2022-09-17T07:42:04.347Z,96893.00
2022-09-17T07:47:05.124Z,96898.00
2022-09-17T07:52:05.981Z,96887.00
2022-09-17T07:57:06.684Z,96883.00
2022-09-17T08:02:12.736Z,96892.00
2022-09-17T08:07:13.952Z,96892.00
2022-09-17T08:12:15.316Z,96896.00
2022-09-17T08:17:16.667Z,96900.00
2022-09-17T08:22:17.439Z,96893.00
2022-09-17T08:27:18.164Z,96895.00
2022-09-17T08:32:18.930Z,96900.00
2022-09-17T08:37:19.985Z,96907.00
2022-09-17T08:42:39.083Z,96903.00
2022-09-17T08:47:45.404Z,96910.00
2022-09-17T08:53:23.392Z,96905.00
2022-09-17T09:00:00.987Z,96913.00
2022-09-17T09:05:17.093Z,96902.00
2022-09-17T09:10:24.607Z,96913.00
2022-09-17T09:15:53.904Z,96916.00
2022-09-17T09:21:33.371Z,96901.00
2022-09-17T09:26:49.526Z,96911.00
2022-09-17T09:32:35.614Z,96924.00
2022-09-17T09:37:42.308Z,96917.00
2022-09-17T09:42:44.046Z,96931.00
2022-09-17T09:52:22.958Z,96933.00
2022-09-17T09:57:39.032Z,96947.00
2022-09-17T10:02:41.151Z,96944.00
2022-09-17T10:07:44.230Z,96948.00
2022-09-17T10:12:44.976Z,96954.00
2022-09-17T10:17:46.830Z,96946.00
2022-09-17T10:22:48.187Z,96947.00
2022-09-17T10:27:49.579Z,96949.00
2022-09-17T10:33:21.693Z,96937.00
2022-09-17T10:38:29.133Z,96932.00
2022-09-17T10:43:30.209Z,96944.00
2022-09-17T10:48:33.454Z,96932.00
2022-09-17T10:54:18.324Z,96925.00
2022-09-17T11:00:10.569Z,96920.00
2022-09-17T11:07:07.461Z,96940.00
2022-09-17T11:12:38.690Z,96931.00
2022-09-17T11:20:26.757Z,96915.00
2022-09-17T11:26:07.577Z,96916.00
2022-09-17T11:31:36.305Z,96903.00
2022-09-17T11:36:54.345Z,96910.00
2022-09-17T11:42:00.098Z,96914.00
2022-09-17T11:47:13.948Z,96900.00
2022-09-17T11:53:41.491Z,96910.00
2022-09-17T11:59:35.031Z,96924.00
2022-09-17T12:04:46.272Z,96915.00
2022-09-17T12:09:54.704Z,96901.00
2022-09-17T12:15:14.739Z,96896.00
2022-09-17T12:20:30.007Z,96894.00
2022-09-17T12:25:39.661Z,96885.00
2022-09-17T12:30:50.669Z,96885.00
2022-09-17T12:36:07.093Z,96887.00
2022-09-17T12:41:30.780Z,96888.00
2022-09-17T12:46:57.483Z,96884.00
2022-09-17T12:52:11.294Z,96881.00
2022-09-17T12:58:09.282Z,96878.00
2022-09-17T13:03:43.048Z,96883.00
2022-09-17T13:09:56.377Z,96863.00
2022-09-17T13:15:24.247Z,96859.00
2022-09-17T13:20:31.725Z,96854.00
2022-09-17T13:25:32.788Z,96853.00
2022-09-17T13:30:59.583Z,96841.00
2022-09-17T13:36:01.857Z,96843.00
2022-09-17T13:41:21.044Z,96832.00
2022-09-17T13:46:23.708Z,96822.00
2022-09-17T13:51:57.698Z,96836.00
2022-09-17T13:57:11.969Z,96839.00
2022-09-17T14:02:35.482Z,96826.00
2022-09-17T14:07:46.598Z,96827.00
2022-09-17T14:12:56.565Z,96832.00
2022-09-17T14:17:58.102Z,96841.00
2022-09-17T14:23:01.429Z,96847.00
2022-09-17T14:28:36.606Z,96852.00
2022-09-17T14:33:39.085Z,96857.00
2022-09-17T14:38:47.923Z,96856.00
2022-09-17T14:44:07.557Z,96852.00
2022-09-17T14:49:42.369Z,96873.00
2022-09-17T14:54:43.946Z,96868.00
2022-09-17T14:59:57.808Z,96860.00
2022-09-17T15:04:59.466Z,96864.00
2022-09-17T15:10:14.656Z,96881.00
2022-09-17T15:15:25.540Z,96936.00
2022-09-17T15:20:31.325Z,96921.00
2022-09-17T15:25:33.779Z,96948.00
2022-09-17T15:30:34.665Z,96917.00
2022-09-17T15:35:35.561Z,96918.00
2022-09-17T15:40:40.930Z,96926.00
2022-09-17T15:45:42.275Z,96917.00
2022-09-17T15:50:54.483Z,96886.00
2022-09-17T15:57:16.816Z,96882.00
2022-09-17T16:02:30.869Z,96874.00
2022-09-17T16:07:31.796Z,96868.00
2022-09-17T16:12:32.695Z,96872.00
2022-09-17T16:17:45.581Z,96870.00
2022-09-17T16:22:47.374Z,96873.00
2022-09-17T16:27:58.846Z,96874.00
2022-09-17T16:33:02.800Z,96876.00
2022-09-17T16:38:04.135Z,96875.00
2022-09-17T16:43:05.058Z,96882.00
2022-09-17T16:48:06.325Z,96896.00
2022-09-17T16:53:07.091Z,96900.00
2022-09-17T16:58:08.028Z,96896.00
2022-09-17T17:03:12.386Z,96908.00
2022-09-17T17:08:13.937Z,96907.00
2022-09-17T17:13:15.243Z,96916.00
2022-09-17T17:18:20.011Z,96923.00
2022-09-17T17:23:20.743Z,96927.00
2022-09-17T17:28:21.846Z,96916.00
2022-09-17T17:33:22.820Z,96921.00
2022-09-17T17:38:23.669Z,96938.00
2022-09-17T17:43:24.515Z,97005.00
2022-09-17T17:48:25.492Z,97010.00
2022-09-17T17:53:26.557Z,97004.00
2022-09-17T17:58:27.684Z,96988.00
2022-09-17T18:03:28.476Z,96990.00
2022-09-17T18:08:29.216Z,96997.00
2022-09-17T18:13:30.671Z,96986.00
2022-09-17T18:18:34.296Z,96975.00
2022-09-17T18:23:37.603Z,96977.00
2022-09-17T18:28:38.688Z,96968.00
2022-09-17T18:33:39.883Z,96980.00
2022-09-17T18:38:40.751Z,96984.00
2022-09-17T18:43:41.769Z,96993.00
2022-09-17T18:48:43.063Z,96998.00
2022-09-17T18:53:46.288Z,97010.00
2022-09-17T18:58:55.039Z,97006.00
2022-09-17T19:03:58.025Z,97016.00
2022-09-17T19:09:00.911Z,97019.00
2022-09-17T19:14:01.888Z,97019.00
2022-09-17T19:19:02.812Z,97035.00
2022-09-17T19:24:03.917Z,97044.00
2022-09-17T19:29:05.580Z,97050.00
2022-09-17T19:34:07.214Z,97040.00
2022-09-17T19:39:08.577Z,97047.00
2022-09-17T19:44:09.441Z,97061.00
2022-09-17T19:49:13.186Z,97043.00
2022-09-17T19:54:13.995Z,97034.00
2022-09-17T19:59:14.908Z,97040.00
2022-09-17T20:04:15.812Z,97039.00
2022-09-17T20:09:16.579Z,97049.00
2022-09-17T20:14:18.124Z,97054.00
2022-09-17T20:19:19.192Z,97058.00
2022-09-17T20:24:20.347Z,97050.00
2022-09-17T20:29:21.116Z,97063.00
2022-09-17T20:34:21.879Z,97062.00
2022-09-17T20:39:23.383Z,97059.00
2022-09-17T20:44:24.328Z,97050.00
2022-09-17T20:49:25.096Z,97045.00
2022-09-17T20:54:25.859Z,97039.00
2022-09-17T20:59:39.021Z,97049.00
2022-09-17T21:04:39.831Z,97047.00
2022-09-17T21:09:41.312Z,97050.00
2022-09-17T21:14:42.157Z,97054.00
2022-09-17T21:19:42.920Z,97055.00
2022-09-17T21:24:43.771Z,97050.00
2022-09-17T21:29:44.532Z,97054.00
2022-09-17T21:34:45.281Z,97058.00
2022-09-17T21:39:46.612Z,97063.00
2022-09-17T21:44:47.580Z,97072.00
2022-09-17T21:49:48.334Z,97064.00
2022-09-17T21:54:49.096Z,97067.00
2022-09-17T21:59:49.834Z,97065.00
2022-09-17T22:04:50.552Z,97077.00
2022-09-17T22:09:51.419Z,97077.00
2022-09-17T22:14:52.209Z,97075.00
2022-09-17T22:19:52.973Z,97074.00
2022-09-17T22:24:53.704Z,97079.00
2022-09-17T22:29:54.485Z,97078.00
2022-09-17T22:34:55.234Z,97081.00
2022-09-17T22:39:56.275Z,97080.00
2022-09-17T22:44:57.081Z,97079.00
2022-09-17T22:49:57.829Z,97068.00
2022-09-17T22:54:58.572Z,97068.00
2022-09-17T22:59:59.351Z,97073.00
2022-09-17T23:05:00.149Z,97077.00
2022-09-17T23:10:01.247Z,97077.00
2022-09-17T23:15:02.485Z,97079.00
2022-09-17T23:20:04.490Z,97077.00
2022-09-17T23:25:05.963Z,97078.00
2022-09-17T23:30:07.802Z,97080.00
2022-09-17T23:35:08.721Z,97072.00
2022-09-17T23:40:09.950Z,97080.00
2022-09-17T23:45:11.287Z,97076.00
2022-09-17T23:50:12.554Z,97081.00
2022-09-17T23:55:13.528Z,97058.00
